Weather at Isle-A-Port STOLport

Public forecast

Using degrees Fahrenheit for public forecast. Weather courtesy of forecast.io.

Closest aviation weather report (METAR) to Isle-A-Port STOLport

Closest report is West Memphis Municipal Airport, 6.4 nm (11.8 km) WNW. Retrieved 2020/12/01 22:53 UTC (25 minutes ago):

KAWM 012253Z AUTO 16004KT 10SM CLR 05/M02 A3018 RMK AO2 SLP222 T00501022

Closest aviation forecast (TAF) to Isle-A-Port STOLport

Closest forecast is Memphis International Airport, 7.5 nm (13.8 km) ESE. Retrieved 2020/12/01 18:52 UTC (4 hours ago):

TAF KMEM 011730Z 0118/0224 21006KT P6SM SKC FM020000 17003KT P6SM SCT250 FM021400 14005KT P6SM BKN250 FM021900 11008KT P6SM SCT120 OVC250